KRS weather

Kristiansand Airport
Kjevik, Vest-Agder, Norway

Public forecast

Using degrees Celsius for public forecast. Weather courtesy of forecast.io.

METAR (pilot weather report)

Retrieved 2019/03/26 00:20 UTC (0 seconds ago):

ENCN 260020Z AUTO 25007KT 220V280 9999 NCD 04/M01 Q1018

TAF (pilot weather forecast)

Forecast is more than 12 hours old.

Retrieved 2016/05/06 12:39 UTC (3 years ago):

TAF TAF ENCN 061100Z 0612/0712 14008KT 9999 FEW040